Time;durP1;ratioP1;P1;durP2;ratioP2;P2;SDS_P1;SDS_P2;PMS_P1;PMS_P2;Temp;Humidity;BMP_temperature;BMP_pressure;BME280_temperature;BME280_humidity;BME280_pressure;Samples;Min_cycle;Max_cycle;Signal;HPM_P1;HPM_P2
2022/04/11 00:02:24;;;;;;;5.37;2.10;;;4.60;76.90;;;2.45;64.53;100437.56;10322635;28;98092;-79
2022/04/11 00:07:30;;;;;;;5.00;2.40;;;4.50;79.60;;;2.44;64.53;100435.06;10343915;28;96667;-78
2022/04/11 00:12:35;;;;;;;9.07;2.97;;;4.40;78.30;;;2.39;64.74;100433.59;10371407;28;96566;-79
2022/04/11 00:17:38;;;;;;;2.40;1.20;;;4.30;78.30;;;2.40;65.05;100439.72;10345423;28;96593;-79
2022/04/11 00:22:41;;;;;;;3.70;1.40;;;4.30;78.80;;;2.42;64.82;100432.56;10358406;28;96633;-79
2022/04/11 00:27:44;;;;;;;5.23;1.80;;;4.30;81.50;;;2.52;64.96;100448.47;10332102;28;98355;-79
2022/04/11 00:32:47;;;;;;;6.47;2.23;;;4.40;80.10;;;2.53;65.02;100447.53;10354187;28;96500;-79
2022/04/11 00:37:50;;;;;;;5.37;1.80;;;4.40;81.20;;;2.53;64.99;100458.03;10320992;28;96575;-79
2022/04/11 00:42:53;;;;;;;7.17;1.70;;;4.40;80.90;;;2.42;65.25;100450.94;10319149;28;96831;-79
2022/04/11 00:47:56;;;;;;;4.37;1.87;;;4.30;82.60;;;2.31;65.66;100446.44;10388045;28;96522;-79
2022/04/11 00:53:00;;;;;;;4.70;1.80;;;4.20;82.70;;;2.22;65.96;100454.09;10325539;28;96631;-79
2022/04/11 00:58:05;;;;;;;3.43;1.73;;;4.20;82.90;;;2.29;65.65;100458.00;10348052;28;96566;-78
2022/04/11 01:03:09;;;;;;;3.40;1.53;;;4.20;83.00;;;2.23;66.26;100464.50;10319396;28;97027;-79
2022/04/11 01:08:12;;;;;;;3.10;1.40;;;4.20;84.70;;;2.15;66.66;100472.06;10317298;28;96514;-78
2022/04/11 01:13:16;;;;;;;2.17;1.20;;;4.10;85.50;;;2.12;67.39;100469.66;10379843;28;96695;-79
2022/04/11 01:18:19;;;;;;;1.63;1.30;;;4.00;87.50;;;2.32;67.41;100468.25;10321990;28;96609;-78
2022/04/11 01:23:21;;;;;;;2.93;1.80;;;4.10;89.80;;;2.44;66.85;100471.78;10358461;28;96661;-79
2022/04/11 01:28:25;;;;;;;3.70;1.57;;;4.30;89.10;;;2.42;66.88;100478.00;10325076;28;96724;-79
2022/04/11 01:33:30;;;;;;;8.00;3.33;;;4.30;89.30;;;2.33;67.28;100489.13;10331623;28;96907;-78
2022/04/11 01:38:33;;;;;;;4.40;1.83;;;4.20;89.30;;;2.28;67.73;100493.88;10318790;28;97096;-78
2022/04/11 01:43:36;;;;;;;3.63;1.90;;;4.20;90.10;;;2.27;67.71;100494.78;10353312;28;96458;-78
2022/04/11 01:48:40;;;;;;;3.83;2.10;;;4.10;90.80;;;2.28;67.63;100495.63;10339292;28;96473;-79
2022/04/11 01:53:43;;;;;;;2.20;1.70;;;4.10;91.80;;;2.31;68.51;100498.03;10357443;28;96881;-79
2022/04/11 01:58:46;;;;;;;3.10;1.77;;;4.10;93.60;;;2.48;68.81;100491.63;10327055;28;96464;-79
2022/04/11 02:03:48;;;;;;;2.30;1.67;;;4.20;94.30;;;2.55;68.32;100500.72;10338516;28;96576;-78
2022/04/11 02:08:52;;;;;;;4.30;2.37;;;4.30;93.90;;;2.48;68.24;100502.13;10349100;28;96544;-78
2022/04/11 02:13:54;;;;;;;3.73;1.90;;;4.30;94.10;;;2.37;69.03;100508.94;10337281;28;96585;-78
2022/04/11 02:18:57;;;;;;;4.40;1.80;;;4.20;94.40;;;2.34;69.04;100508.31;10330809;28;97470;-79
2022/04/11 02:24:00;;;;;;;3.37;2.00;;;4.10;94.50;;;2.31;69.16;100512.00;10367062;28;96634;-78
2022/04/11 02:29:03;;;;;;;4.40;2.47;;;4.10;94.80;;;2.25;69.12;100507.19;10332042;28;96917;-78
2022/04/11 02:34:06;;;;;;;4.93;2.17;;;4.00;94.90;;;2.17;69.54;100506.88;10321513;28;96528;-79
2022/04/11 02:39:10;;;;;;;5.10;2.10;;;4.00;95.50;;;2.14;69.91;100507.91;10345921;28;96586;-78
2022/04/11 02:44:14;;;;;;;3.50;2.17;;;3.90;96.00;;;2.10;70.01;100513.50;10335241;28;97080;-78
2022/04/11 02:49:17;;;;;;;3.50;2.30;;;3.90;96.60;;;2.08;70.49;100508.34;10330756;28;96438;-79
2022/04/11 02:54:22;;;;;;;3.77;1.80;;;3.90;97.00;;;2.03;70.52;100510.44;10323023;28;96437;-78
2022/04/11 02:59:25;;;;;;;3.87;2.37;;;3.80;98.40;;;2.02;70.92;100518.41;10347280;28;96457;-79
2022/04/11 03:04:28;;;;;;;4.03;2.37;;;3.80;98.50;;;1.99;71.44;100510.78;10362105;28;97695;-78
2022/04/11 03:09:31;;;;;;;6.00;2.63;;;3.80;99.20;;;1.94;71.63;100516.34;10379644;28;96510;-78
2022/04/11 03:14:34;;;;;;;5.87;2.57;;;3.70;99.50;;;1.93;71.94;100525.16;10365058;28;97004;-78
2022/04/11 03:19:37;;;;;;;4.90;2.60;;;3.70;99.70;;;1.85;72.24;100525.63;10334795;28;97989;-78
2022/04/11 03:24:40;;;;;;;6.40;3.10;;;3.70;99.90;;;1.73;72.54;100544.81;10314770;28;96569;-79
2022/04/11 03:29:43;;;;;;;6.60;3.40;;;3.60;99.90;;;1.62;72.70;100547.34;10351460;28;96537;-78
2022/04/11 03:34:46;;;;;;;6.13;2.87;;;3.50;99.90;;;1.52;73.32;100559.34;10298984;28;96428;-78
2022/04/11 03:39:49;;;;;;;5.63;3.43;;;3.30;99.90;;;1.43;74.04;100562.56;10375419;28;96565;-79
2022/04/11 03:44:52;;;;;;;6.33;3.97;;;3.30;99.90;;;1.30;74.67;100573.84;10375525;28;96749;-79
2022/04/11 03:49:56;;;;;;;6.13;3.57;;;3.10;99.90;;;1.20;75.51;100588.47;10330605;28;96789;-78
2022/04/11 03:54:59;;;;;;;5.20;3.40;;;3.10;99.90;;;1.15;75.60;100585.31;10333847;28;96448;-78
2022/04/11 04:00:02;;;;;;;5.90;3.87;;;3.00;99.90;;;1.10;75.82;100592.63;10366674;28;96656;-79
2022/04/11 04:05:05;;;;;;;9.27;3.63;;;3.00;99.90;;;1.04;76.28;100600.84;10385963;28;96523;-79
2022/04/11 04:10:09;;;;;;;6.93;3.83;;;2.90;99.90;;;0.98;76.59;100596.84;10361172;28;96497;-79
2022/04/11 04:15:12;;;;;;;7.50;3.83;;;2.90;99.90;;;0.96;76.99;100617.06;10354286;28;96543;-79
2022/04/11 04:20:15;;;;;;;7.53;4.23;;;2.90;99.90;;;0.97;77.06;100617.91;10330265;28;96520;-79
2022/04/11 04:25:19;;;;;;;10.37;4.57;;;2.80;99.90;;;0.96;77.57;100619.66;10314516;28;96711;-78
2022/04/11 04:30:21;;;;;;;5.73;3.50;;;2.80;99.90;;;0.99;77.68;100632.53;10299651;28;97341;-78
2022/04/11 04:35:25;;;;;;;4.73;3.03;;;2.80;99.90;;;1.09;77.73;100638.06;10370243;28;96640;-79
2022/04/11 04:40:28;;;;;;;5.90;3.47;;;2.90;99.90;;;1.21;78.03;100636.44;10307146;28;96944;-78
2022/04/11 04:45:31;;;;;;;5.87;3.03;;;3.00;99.90;;;1.34;77.94;100632.94;10305175;28;97536;-77
2022/04/11 04:50:34;;;;;;;6.63;3.73;;;3.20;99.90;;;1.47;77.44;100640.00;10308163;28;98115;-78
2022/04/11 04:55:37;;;;;;;13.83;5.90;;;3.30;99.90;;;1.61;77.22;100648.63;10309498;28;98449;-78
2022/04/11 05:00:40;;;;;;;8.70;5.20;;;3.40;99.90;;;1.77;77.24;100647.66;10302366;28;98100;-78
2022/04/11 05:05:43;;;;;;;7.67;4.47;;;3.50;99.90;;;1.92;76.82;100654.50;10331502;28;96550;-78
2022/04/11 05:10:46;;;;;;;6.70;3.57;;;3.70;99.90;;;2.07;76.20;100655.25;10330973;28;96492;-78
2022/04/11 05:15:49;;;;;;;5.50;3.10;;;3.80;99.90;;;2.20;76.25;100643.00;10322172;28;96518;-78
2022/04/11 05:20:52;;;;;;;5.10;3.10;;;3.90;99.90;;;2.35;75.76;100646.38;10330564;28;96586;-77
2022/04/11 05:25:56;;;;;;;6.93;3.90;;;4.10;99.90;;;2.51;75.68;100640.91;10330049;28;96766;-78
2022/04/11 05:31:01;;;;;;;7.03;3.10;;;4.20;99.90;;;2.71;75.10;100636.94;10315288;28;96532;-77
2022/04/11 05:36:05;;;;;;;5.03;3.50;;;4.40;99.90;;;2.90;74.42;100632.06;10360766;28;96880;-77
2022/04/11 05:41:08;;;;;;;5.30;3.13;;;4.60;99.90;;;3.11;74.02;100627.06;10326143;28;96550;-78
2022/04/11 05:46:11;;;;;;;8.33;3.70;;;4.80;99.90;;;3.30;73.81;100632.69;10329180;28;96650;-79
2022/04/11 05:51:14;;;;;;;7.47;2.90;;;4.90;99.90;;;3.52;72.76;100629.34;10366078;28;96665;-79
2022/04/11 05:56:17;;;;;;;9.33;6.03;;;5.10;99.90;;;3.69;71.53;100631.56;10339495;28;96673;-79
2022/04/11 06:01:20;;;;;;;5.00;2.83;;;5.40;99.90;;;3.91;70.92;100636.09;10331771;28;96555;-79
2022/04/11 06:06:23;;;;;;;4.37;2.67;;;5.50;99.90;;;4.09;70.06;100636.50;10324710;28;98458;-79
2022/04/11 06:11:26;;;;;;;5.70;3.10;;;5.70;99.90;;;4.28;68.82;100638.56;10332171;28;97537;-79
2022/04/11 06:16:29;;;;;;;4.60;2.73;;;5.90;99.50;;;4.46;67.89;100633.69;10330874;28;97041;-78
2022/04/11 06:21:32;;;;;;;3.60;2.47;;;6.10;99.40;;;4.64;66.89;100634.06;10329587;28;99113;-78
2022/04/11 06:26:36;;;;;;;6.00;2.40;;;6.20;98.60;;;4.80;66.63;100626.66;10333083;28;96479;-79
2022/04/11 06:31:39;;;;;;;4.73;2.70;;;6.40;97.80;;;4.95;65.85;100637.75;10343043;28;96507;-79
2022/04/11 06:36:42;;;;;;;6.37;2.97;;;6.50;96.50;;;5.13;65.25;100635.47;10350496;28;96537;-78
2022/04/11 06:41:44;;;;;;;4.30;2.27;;;6.70;96.30;;;5.35;64.64;100632.78;10376212;28;96429;-78
2022/04/11 06:46:47;;;;;;;6.23;2.13;;;6.90;95.00;;;5.52;63.61;100637.53;10389899;28;97715;-78
2022/04/11 06:51:51;;;;;;;7.67;3.07;;;7.10;94.20;;;5.72;62.28;100637.72;10351318;28;96620;-79
2022/04/11 06:56:54;;;;;;;4.40;2.57;;;7.30;91.90;;;5.90;61.85;100641.47;10339981;28;96777;-79
2022/04/11 07:01:57;;;;;;;4.57;2.43;;;7.40;91.30;;;6.03;60.60;100649.22;10355315;28;96557;-79
2022/04/11 07:07:00;;;;;;;4.53;2.13;;;7.60;91.00;;;6.16;59.38;100648.06;10366894;28;96511;-79
2022/04/11 07:12:11;;;;;;;4.05;2.50;;;7.70;89.00;;;6.33;59.51;100659.03;10370056;28;96515;-79
2022/04/11 07:17:14;;;;;;;3.23;1.87;;;7.80;88.10;;;6.48;58.49;100665.66;10339710;28;96781;-79
2022/04/11 07:22:21;;;;;;;5.37;2.17;;;8.00;85.60;;;6.63;58.21;100656.41;10335395;28;96690;-78
2022/04/11 07:27:24;;;;;;;3.37;2.23;;;8.10;86.10;;;6.85;57.65;100657.22;10335043;28;96431;-79
2022/04/11 07:32:27;;;;;;;3.30;2.00;;;8.30;82.80;;;7.12;56.25;100653.97;10347892;28;97103;-79
2022/04/11 07:37:33;;;;;;;2.63;1.37;;;8.60;82.60;;;7.86;54.64;100650.91;10374770;28;96506;-79
2022/04/11 07:42:36;;;;;;;2.23;1.37;;;9.00;77.50;;;9.02;52.02;100646.19;10360170;28;96700;-78
2022/04/11 07:47:39;;;;;;;4.20;1.47;;;9.70;78.10;;;10.10;49.12;100645.31;10349335;28;96533;-79
2022/04/11 07:52:43;;;;;;;2.27;1.40;;;10.20;75.40;;;11.05;46.02;100637.44;10375817;28;96486;-79
2022/04/11 07:57:46;;;;;;;2.15;1.20;;;10.80;66.70;;;11.48;44.62;100626.59;10376620;28;96376;-77
2022/04/11 08:02:57;;;;;;;4.18;1.35;;;11.10;68.40;;;11.89;43.38;100632.00;10335977;28;96805;-79
2022/04/11 08:08:02;;;;;;;2.45;1.30;;;11.40;66.90;;;12.13;42.73;100627.69;10334871;28;96559;-79
2022/04/11 08:13:05;;;;;;;2.77;1.40;;;11.60;63.50;;;12.10;42.06;100633.31;10331193;28;96733;-78
2022/04/11 08:18:09;;;;;;;2.63;1.30;;;11.80;63.20;;;11.64;41.94;100627.63;10332564;28;96525;-79
2022/04/11 08:23:12;;;;;;;2.20;1.23;;;11.90;61.20;;;11.65;41.75;100626.63;10344128;28;97197;-79
2022/04/11 08:28:16;;;;;;;4.07;1.80;;;12.10;59.90;;;11.76;41.37;100624.47;10367226;28;96818;-79
2022/04/11 08:33:19;;;;;;;6.17;2.50;;;12.00;59.20;;;11.48;42.05;100623.09;10353256;28;96771;-80
2022/04/11 08:38:21;;;;;;;3.53;1.40;;;12.00;59.00;;;11.09;42.52;100618.31;10333146;28;97665;-79
2022/04/11 08:43:25;;;;;;;2.37;1.40;;;11.90;59.10;;;10.64;41.81;100623.94;10354032;28;96442;-78
2022/04/11 08:48:28;;;;;;;2.87;1.50;;;11.70;57.40;;;10.50;43.49;100632.50;10368973;28;96544;-79
2022/04/11 08:53:32;;;;;;;4.27;2.17;;;11.80;58.90;;;10.49;43.16;100631.66;10373159;28;96658;-79
2022/04/11 08:58:35;;;;;;;3.80;2.20;;;11.80;58.40;;;10.55;44.32;100630.19;10373356;28;96528;-79
2022/04/11 09:03:41;;;;;;;3.43;1.80;;;11.80;59.60;;;10.64;44.99;100618.63;10366644;28;96576;-79
2022/04/11 09:08:54;;;;;;;3.83;2.00;;;11.90;60.00;;;10.61;43.86;100618.94;10331690;28;96571;-78
2022/04/11 09:14:01;;;;;;;4.77;2.70;;;11.90;58.50;;;10.55;44.08;100622.22;10354546;28;96567;-79
2022/04/11 09:19:04;;;;;;;3.97;1.77;;;11.90;58.90;;;10.66;44.47;100600.69;10350503;28;96476;-78
2022/04/11 09:24:22;;;;;;;3.33;1.90;;;11.90;58.80;;;10.89;44.33;100606.28;10355385;28;96561;-78
2022/04/11 09:29:27;;;;;;;2.40;1.70;;;12.10;59.00;;;11.24;42.55;100589.28;10365659;28;96407;-79
2022/04/11 09:34:30;;;;;;;3.67;1.50;;;12.40;58.00;;;11.51;41.90;100604.13;10339494;28;96687;-78
2022/04/11 09:39:36;;;;;;;3.80;1.40;;;12.60;55.80;;;11.89;40.12;100594.72;10350344;28;96498;-78
2022/04/11 09:44:39;;;;;;;3.13;1.90;;;12.80;55.80;;;12.33;40.35;100597.81;10361883;28;96612;-78
2022/04/11 09:50:02;;;;;;;2.45;1.48;;;13.10;55.50;;;12.65;38.59;100590.75;10370917;28;96615;-79
2022/04/11 09:55:06;;;;;;;3.05;1.70;;;13.40;55.60;;;12.78;38.85;100582.22;10344185;28;96624;-78
2022/04/11 10:00:10;;;;;;;2.70;1.58;;;13.60;54.90;;;12.90;38.07;100583.50;10352654;28;96488;-79
2022/04/11 10:05:14;;;;;;;5.38;1.67;;;13.80;53.80;;;12.89;38.06;100587.16;10389884;28;96474;-79
2022/04/11 10:10:17;;;;;;;3.50;1.77;;;13.90;51.90;;;12.74;37.38;100584.38;10346928;28;97465;-80
2022/04/11 10:15:23;;;;;;;3.53;1.35;;;13.80;51.90;;;12.08;37.12;100590.88;10371180;28;96840;-79
2022/04/11 10:20:38;;;;;;;2.60;1.70;;;13.40;50.60;;;11.73;38.82;100594.69;10355406;28;98212;-79
2022/04/11 10:26:17;;;;;;;2.92;1.83;;;13.00;52.60;;;12.48;38.11;100589.16;10349662;28;96547;-79
2022/04/11 10:31:35;;;;;;;39.08;27.77;;;13.60;51.60;;;12.03;37.08;100594.03;10347271;28;96571;-79
2022/04/11 10:36:39;;;;;;;3.23;1.90;;;13.50;50.50;;;12.02;38.66;100595.03;10378589;28;96397;-79
2022/04/11 10:41:57;;;;;;;2.38;1.67;;;13.30;51.90;;;12.34;36.75;100596.00;10355514;28;97303;-80
2022/04/11 10:47:09;;;;;;;1.60;1.20;;;13.60;49.60;;;12.91;37.27;100579.81;10347796;28;96441;-79
2022/04/11 10:52:28;;;;;;;2.60;1.50;;;13.90;49.60;;;13.60;35.22;100572.75;10377546;28;96580;-77
2022/04/11 10:57:52;;;;;;;2.97;1.60;;;14.40;47.90;;;13.70;34.95;100575.19;10376183;28;96476;-78
2022/04/11 11:02:59;;;;;;;3.03;1.38;;;14.70;48.80;;;13.37;35.17;100579.94;10374040;28;96680;-79
2022/04/11 11:08:11;;;;;;;1.73;1.10;;;14.50;48.00;;;13.06;34.81;100574.56;10376644;28;96529;-78
2022/04/11 11:13:34;;;;;;;1.48;1.00;;;14.30;48.00;;;14.00;33.71;100569.94;10384060;28;97139;-79
2022/04/11 11:18:46;;;;;;;2.03;1.15;;;14.90;47.60;;;14.98;32.43;100562.50;10357682;28;96455;-79
2022/04/11 11:24:04;;;;;;;1.48;1.10;;;15.90;45.60;;;16.13;31.71;100555.38;10351592;28;96563;-79
2022/04/11 11:29:21;;;;;;;9.85;6.75;;;16.90;44.40;;;16.58;29.13;100529.88;10339024;28;96481;-80
2022/04/11 11:34:39;;;;;;;3.00;1.38;;;17.60;44.00;;;15.51;29.03;100549.69;10360506;28;96599;-79
2022/04/11 11:39:45;;;;;;;2.97;1.20;;;16.60;41.30;;;14.72;31.52;100544.28;10362383;28;98106;-78
2022/04/11 11:44:50;;;;;;;1.85;1.02;;;16.00;43.50;;;14.87;31.03;100540.75;10349417;28;96582;-78
2022/04/11 11:50:10;;;;;;;1.38;1.00;;;16.10;43.60;;;14.41;29.93;100540.97;10320780;28;96679;-79
2022/04/11 11:55:14;;;;;;;1.23;0.80;;;15.80;41.90;;;13.73;30.80;100545.44;10307005;28;96664;-79
2022/04/11 12:00:17;;;;;;;2.25;1.13;;;15.00;42.30;;;14.18;30.39;100535.69;10356602;28;97325;-79
2022/04/11 12:05:28;;;;;;;2.50;1.48;;;15.30;42.60;;;14.96;31.67;100529.75;10315232;28;97017;-80
2022/04/11 12:10:32;;;;;;;1.98;1.15;;;16.00;44.00;;;14.42;30.11;100542.63;10336588;28;96878;-79
2022/04/11 12:15:36;;;;;;;8.55;5.50;;;15.70;41.80;;;13.45;30.65;100550.53;10319567;28;96690;-78
2022/04/11 12:20:39;;;;;;;3.33;2.25;;;14.90;41.70;;;12.87;30.61;100538.50;10326562;28;98392;-79
2022/04/11 12:25:50;;;;;;;1.48;1.10;;;14.30;41.70;;;13.20;31.50;100533.81;10314889;28;98225;-78
2022/04/11 12:31:02;;;;;;;2.97;0.80;;;14.40;42.50;;;13.47;31.21;100527.13;10310985;28;96482;-79
2022/04/11 12:36:19;;;;;;;1.63;0.98;;;14.50;43.10;;;14.18;30.44;100512.47;10324696;28;96703;-78
2022/04/11 12:41:52;;;;;;;1.30;0.65;;;15.10;42.90;;;15.04;29.43;100502.03;10311519;28;97033;-78
2022/04/11 12:47:01;;;;;;;1.40;1.20;;;15.80;40.80;;;15.22;29.75;100499.75;10299572;28;98151;-76
2022/04/11 12:52:07;;;;;;;2.47;1.30;;;16.30;42.00;;;15.22;29.42;100502.44;10332790;28;96585;-79
2022/04/11 12:57:19;;;;;;;3.40;2.70;;;16.60;40.30;;;15.20;28.60;100499.13;10326606;28;97548;-79
2022/04/11 13:02:26;;;;;;;4.70;2.60;;;16.90;39.90;;;15.62;28.68;100493.97;10328970;28;96671;-80
2022/04/11 13:07:29;;;;;;;17.25;5.45;;;17.30;39.90;;;15.83;26.80;100482.38;10331213;28;96530;-79
2022/04/11 13:12:32;;;;;;;3.67;1.92;;;17.70;39.00;;;16.25;28.07;100470.69;10357614;28;98699;-79
2022/04/11 13:23:13;;;;;;;2.58;1.20;;;17.90;37.70;;;15.40;28.36;100477.91;10309295;28;96682;-81
2022/04/11 13:28:16;;;;;;;1.92;0.90;;;17.20;38.80;;;15.70;27.72;100467.88;10345069;28;96620;-80
2022/04/11 13:33:19;;;;;;;1.40;0.93;;;17.40;38.50;;;15.53;27.50;100472.69;10337615;28;96597;-78
2022/04/11 13:38:22;;;;;;;1.55;1.08;;;17.30;38.00;;;14.82;29.13;100470.94;10344402;28;96554;-79
2022/04/11 13:43:25;;;;;;;1.27;0.93;;;16.70;39.30;;;15.19;28.63;100468.03;10337793;28;96558;-79
2022/04/11 13:48:28;;;;;;;1.75;0.90;;;16.90;39.20;;;15.47;27.33;100462.72;10331302;28;99000;-79
2022/04/11 13:53:31;;;;;;;1.83;1.10;;;17.20;38.20;;;14.93;28.05;100462.41;10300485;28;97019;-79
2022/04/11 13:58:35;;;;;;;1.77;1.02;;;16.70;38.20;;;14.12;28.74;100466.94;10314978;28;96670;-78
2022/04/11 14:03:38;;;;;;;2.80;1.20;;;16.00;39.00;;;13.68;30.19;100469.56;10334985;28;96935;-79
2022/04/11 14:08:41;;;;;;;1.98;1.00;;;15.50;40.40;;;14.33;30.10;100461.66;10328934;28;96451;-79
2022/04/11 14:13:44;;;;;;;2.22;1.10;;;15.90;40.60;;;14.99;27.47;100450.94;10330373;28;96600;-80
2022/04/11 14:18:47;;;;;;;2.20;1.08;;;16.40;37.50;;;14.58;28.27;100461.41;10329070;28;96598;-79
2022/04/11 14:23:51;;;;;;;3.00;2.13;;;16.20;39.00;;;14.26;29.22;100449.22;10344628;28;96675;-80
2022/04/11 14:28:53;;;;;;;2.85;1.40;;;15.90;39.50;;;14.68;29.28;100452.03;10327707;28;97861;-81
2022/04/11 14:33:56;;;;;;;3.00;1.58;;;16.30;39.80;;;14.41;28.38;100447.38;10332734;28;97802;-78
2022/04/11 14:38:59;;;;;;;1.70;1.00;;;16.10;38.90;;;14.18;29.85;100439.47;10295303;28;96406;-80
2022/04/11 14:44:13;;;;;;;2.63;0.80;;;15.90;39.60;;;14.56;28.29;100428.66;10332055;28;96742;-79
2022/04/11 14:49:16;;;;;;;1.38;0.80;;;16.20;38.70;;;15.36;27.83;100432.97;10362764;28;96645;-80
2022/04/11 14:54:39;;;;;;;1.77;1.05;;;16.70;38.50;;;15.96;26.64;100419.00;10343806;28;96495;-79
2022/04/11 14:59:42;;;;;;;1.65;0.60;;;17.30;37.50;;;16.11;25.71;100421.53;10332651;28;97180;-80
2022/04/11 15:04:45;;;;;;;1.83;0.90;;;17.50;36.90;;;15.88;25.93;100423.69;10323745;28;96751;-80
2022/04/11 15:09:48;;;;;;;1.98;1.00;;;17.30;36.90;;;15.21;25.73;100433.88;10337257;28;96815;-80
2022/04/11 15:14:52;;;;;;;1.52;0.77;;;16.90;36.40;;;14.73;26.95;100422.06;10341531;28;96699;-80
2022/04/11 15:19:55;;;;;;;1.10;0.80;;;16.30;37.80;;;15.07;25.71;100432.09;10381377;28;96629;-79
2022/04/11 15:24:59;;;;;;;2.15;0.90;;;16.40;36.30;;;15.53;25.99;100419.09;10342863;28;96635;-80
2022/04/11 15:30:04;;;;;;;4.20;1.77;;;16.70;36.60;;;15.81;25.66;100415.59;10334032;28;97295;-80
2022/04/11 15:35:08;;;;;;;2.47;1.20;;;16.90;35.60;;;15.66;26.06;100420.25;10331816;28;97259;-80
2022/04/11 15:40:15;;;;;;;1.63;1.05;;;16.80;37.30;;;15.14;26.18;100414.25;10335375;28;96412;-80
2022/04/11 15:45:21;;;;;;;4.07;1.25;;;16.50;37.20;;;14.46;26.44;100420.91;10350005;28;96604;-79
2022/04/11 15:50:25;;;;;;;2.88;1.30;;;16.00;37.50;;;13.71;27.86;100427.28;10334094;28;96648;-79
2022/04/11 15:55:45;;;;;;;2.08;1.30;;;15.30;38.50;;;13.33;29.53;100429.16;10323548;28;96632;-80
2022/04/11 16:00:48;;;;;;;2.40;1.52;;;14.90;39.20;;;13.65;28.58;100422.69;10333983;28;96545;-81
2022/04/11 16:05:56;;;;;;;4.38;2.42;;;14.90;39.10;;;13.29;28.62;100433.19;10332637;28;97791;-80
2022/04/11 16:11:03;;;;;;;6.40;3.30;;;14.80;39.10;;;12.79;29.08;100429.22;10328877;28;98151;-79
2022/04/11 16:16:08;;;;;;;4.33;2.03;;;14.40;39.60;;;12.35;28.97;100432.44;10368747;28;96531;-80
2022/04/11 16:21:12;;;;;;;3.13;1.00;;;13.90;39.50;;;11.86;29.28;100424.63;10332079;28;97966;-80
2022/04/11 16:26:17;;;;;;;3.33;0.90;;;13.50;39.50;;;11.50;30.12;100432.97;10351840;28;96642;-80
2022/04/11 16:31:20;;;;;;;3.23;1.80;;;13.10;40.40;;;11.21;30.43;100435.31;10355820;28;96706;-80
2022/04/11 16:36:23;;;;;;;3.70;1.83;;;12.80;40.50;;;10.96;30.99;100447.75;10388097;28;96671;-80
2022/04/11 16:41:26;;;;;;;3.73;2.30;;;12.60;40.90;;;10.73;32.00;100436.91;10354186;28;96564;-79
2022/04/11 16:46:30;;;;;;;4.00;2.13;;;12.40;41.60;;;10.56;32.33;100436.06;10352220;28;96503;-80
2022/04/11 16:51:34;;;;;;;5.30;3.17;;;12.20;41.80;;;10.36;33.01;100446.13;10364722;28;96595;-79
2022/04/11 16:56:36;;;;;;;6.03;2.70;;;12.10;42.50;;;10.08;33.73;100453.44;10368400;28;96738;-80
2022/04/11 17:01:39;;;;;;;4.10;2.30;;;11.80;42.90;;;9.83;34.23;100448.97;10357812;28;96858;-80
2022/04/11 17:06:42;;;;;;;4.97;2.20;;;11.60;43.40;;;9.55;35.34;100448.31;10338561;28;98091;-80
2022/04/11 17:11:46;;;;;;;5.93;2.50;;;11.30;44.20;;;9.30;35.64;100458.75;10344116;28;96567;-80
2022/04/11 17:22:11;;;;;;;6.07;3.45;;;10.90;44.80;;;8.82;37.64;100483.81;10363328;28;96921;-79
2022/04/11 17:27:16;;;;;;;5.90;2.90;;;10.70;45.30;;;8.56;38.50;100482.81;10352203;28;96601;-79
2022/04/11 17:32:19;;;;;;;12.10;3.77;;;10.50;46.20;;;8.25;38.99;100493.69;10361481;28;96517;-78
2022/04/11 17:37:22;;;;;;;9.47;2.53;;;10.20;46.40;;;8.00;39.51;100483.75;10353357;28;97557;-78
2022/04/11 17:42:25;;;;;;;9.10;3.10;;;9.90;47.10;;;7.78;39.76;100492.84;10344427;28;96869;-79
2022/04/11 17:47:31;;;;;;;12.57;3.67;;;9.70;47.40;;;7.56;40.69;100495.78;10343483;28;98269;-79
2022/04/11 17:52:34;;;;;;;5.43;2.00;;;9.50;48.20;;;7.35;41.14;100506.53;10335860;28;96539;-78
2022/04/11 17:57:37;;;;;;;5.33;1.80;;;9.30;48.80;;;7.17;41.64;100514.31;10346713;28;96510;-78
2022/04/11 18:02:46;;;;;;;4.80;2.27;;;9.10;49.20;;;7.01;42.19;100512.22;10329999;28;96686;-78
2022/04/11 18:07:49;;;;;;;4.33;2.13;;;8.90;49.70;;;6.90;42.46;100520.28;10373233;28;96576;-78
2022/04/11 18:12:52;;;;;;;6.53;2.77;;;8.80;50.00;;;6.79;43.08;100528.31;10370119;28;97493;-78
2022/04/11 18:17:55;;;;;;;6.07;2.90;;;8.60;50.70;;;6.66;43.48;100525.94;10378736;28;96531;-78
2022/04/11 18:22:59;;;;;;;4.97;2.37;;;8.50;50.90;;;6.58;43.83;100536.31;10380859;28;98159;-78
2022/04/11 18:31:31;;;;;;;11.50;5.37;;;8.40;51.60;;;6.50;43.67;100539.63;10343723;28;97568;-78
2022/04/11 18:33:26;;;;;;;5.17;2.53;;;8.30;51.50;;;6.42;44.21;100548.22;10379066;28;96514;-79
2022/04/11 18:38:28;;;;;;;7.23;2.60;;;8.30;51.80;;;6.31;44.60;100561.50;10367028;28;96549;-78
2022/04/11 18:43:31;;;;;;;5.67;2.47;;;8.20;51.90;;;6.19;44.99;100561.72;10363212;28;96506;-78
2022/04/11 18:48:38;;;;;;;6.80;2.47;;;8.00;52.40;;;6.06;45.44;100568.03;10334663;28;96431;-78
2022/04/11 18:53:42;;;;;;;3.80;2.37;;;7.90;52.40;;;5.96;45.30;100566.28;10383148;28;96607;-77
2022/04/11 18:58:49;;;;;;;2.70;1.50;;;7.80;52.60;;;5.90;45.15;100573.72;10361846;28;96532;-77
2022/04/11 19:03:51;;;;;;;2.47;1.33;;;7.70;53.10;;;5.83;45.81;100577.84;10331277;28;98278;-78
2022/04/11 19:08:54;;;;;;;4.27;1.97;;;7.60;53.40;;;5.74;46.09;100578.59;10308954;28;96679;-77
2022/04/11 19:13:58;;;;;;;2.73;1.43;;;7.60;53.50;;;5.61;46.44;100570.03;10335817;28;96732;-77
2022/04/11 19:19:03;;;;;;;11.27;3.63;;;7.50;53.80;;;5.47;46.87;100565.91;10308919;28;96837;-77
2022/04/11 19:24:07;;;;;;;6.63;2.93;;;7.40;53.80;;;5.36;47.22;100574.69;10331067;28;98361;-77
2022/04/11 19:29:10;;;;;;;4.53;1.90;;;7.30;54.70;;;5.26;47.90;100572.91;10326519;28;96580;-78
2022/04/11 19:34:13;;;;;;;4.30;2.10;;;7.20;54.90;;;5.14;48.10;100568.66;10341890;28;96408;-77
2022/04/11 19:39:17;;;;;;;4.70;1.83;;;7.00;55.20;;;5.03;47.98;100564.22;10334528;28;96432;-78
2022/04/11 19:44:21;;;;;;;7.33;2.90;;;6.90;55.40;;;4.95;48.22;100567.50;10332850;28;96514;-78
2022/04/11 19:54:47;;;;;;;7.13;2.42;;;6.70;56.90;;;4.72;48.84;100565.84;10332792;28;97606;-77
2022/04/11 19:59:52;;;;;;;3.90;1.57;;;6.60;56.40;;;4.66;49.46;100564.53;10313235;28;96547;-77
2022/04/11 20:04:58;;;;;;;3.80;1.97;;;6.50;57.30;;;4.59;49.82;100558.09;10348949;28;96644;-78
2022/04/11 20:10:01;;;;;;;4.23;2.10;;;6.50;57.50;;;4.55;49.84;100565.38;10326628;28;97168;-77
2022/04/11 20:15:09;;;;;;;5.33;1.70;;;6.40;57.40;;;4.59;49.57;100565.97;10311370;28;96657;-77
2022/04/11 20:20:14;;;;;;;2.70;1.43;;;6.40;57.20;;;4.63;49.36;100570.06;10331205;28;96694;-77
2022/04/11 20:25:18;;;;;;;3.07;1.77;;;6.40;57.00;;;4.62;49.42;100567.53;10353763;28;96832;-76
2022/04/11 20:30:26;;;;;;;3.77;1.80;;;6.40;57.20;;;4.57;49.74;100571.38;10323259;28;98352;-77
2022/04/11 20:35:29;;;;;;;3.33;1.73;;;6.40;57.70;;;4.49;49.97;100568.47;10325036;28;96547;-77
2022/04/11 20:40:34;;;;;;;3.80;1.80;;;6.40;57.70;;;4.42;50.04;100571.72;10333237;28;96487;-76
2022/04/11 20:45:37;;;;;;;3.77;2.00;;;6.30;57.60;;;4.35;50.33;100573.16;10308168;28;97269;-77
2022/04/11 20:50:40;;;;;;;6.50;2.33;;;6.20;57.70;;;4.37;49.71;100574.69;10300850;28;96529;-76
2022/04/11 20:55:45;;;;;;;4.97;2.70;;;6.20;57.40;;;4.28;51.21;100572.78;10316985;28;96518;-76
2022/04/11 21:00:48;;;;;;;6.43;3.40;;;6.20;58.80;;;4.13;52.08;100571.31;10326374;28;96827;-76
2022/04/11 21:05:51;;;;;;;6.67;3.40;;;6.00;58.80;;;3.92;53.36;100564.13;10306898;28;96550;-76
2022/04/11 21:10:55;;;;;;;9.97;4.87;;;5.90;59.30;;;3.71;54.74;100565.72;10341647;28;98603;-77
2022/04/11 21:15:59;;;;;;;10.20;5.07;;;5.80;60.60;;;3.48;55.25;100570.94;10366936;28;96711;-77
2022/04/11 21:21:02;;;;;;;10.57;5.83;;;5.50;62.00;;;3.30;56.58;100577.53;10335691;28;96541;-77
2022/04/11 21:26:05;;;;;;;10.53;5.17;;;5.30;61.90;;;3.13;57.18;100573.50;10378228;28;96468;-76